Terminal Aerodrome Forecast
Issued by NWS

Home | Current Version | Previous Version | Text Only | Print | Product List | Glossary On
Versions: 1 2 3 4 5 6 7 8 9 10 11 12 13 14 15 16 17 18 19 20 21 22 23 24 25 26 27 28 29 30 31 32 33 34 35 36 37 38 39 40 41 42 43 44
000
FTAK31 PAFA 080010 RRA
TAFAOT
TAF
PAOT 080010Z 0800/0824 25017KT P6SM SCT007 BKN020 OVC035
      TEMPO 0800/0803 BKN007
     FM080400 26007KT P6SM VCSH FEW015 BKN035 OVC050
     FM080600 34007KT P6SM SCT035 BKN100=

USA.gov is the U.S. government's official web portal to all federal, state and local government web resources and services.